createdAt,value
2022-08-26T00:01:56.305Z,100772.72
2022-08-26T00:04:26.089Z,100777.38
2022-08-26T00:06:56.270Z,100773.94
2022-08-26T00:09:27.289Z,100778.56
2022-08-26T00:11:55.528Z,100768.03
2022-08-26T00:14:30.760Z,100773.56
2022-08-26T00:16:59.532Z,100772.81
2022-08-26T00:19:28.167Z,100772.03
2022-08-26T00:21:57.320Z,100772.16
2022-08-26T00:24:25.262Z,100775.00
2022-08-26T00:26:53.803Z,100764.38
2022-08-26T00:29:21.875Z,100769.81
2022-08-26T00:31:50.463Z,100769.97
2022-08-26T00:34:19.418Z,100766.53
2022-08-26T00:36:47.841Z,100766.59
2022-08-26T00:39:22.072Z,100763.16
2022-08-26T00:41:50.577Z,100764.16
2022-08-26T00:44:19.213Z,100775.03
2022-08-26T00:46:52.558Z,100772.47
2022-08-26T00:49:31.041Z,100764.53
2022-08-26T00:52:02.292Z,100761.94
2022-08-26T00:54:37.548Z,100762.09
2022-08-26T00:57:15.846Z,100765.88
2022-08-26T00:59:46.649Z,100762.38
2022-08-26T01:02:20.012Z,100764.25
2022-08-26T01:04:55.758Z,100753.59
2022-08-26T01:07:26.935Z,100756.44
2022-08-26T01:09:57.683Z,100761.91
2022-08-26T01:12:30.046Z,100753.97
2022-08-26T01:14:57.924Z,100759.41
2022-08-26T01:17:25.991Z,100755.91
2022-08-26T01:20:01.273Z,100764.06
2022-08-26T01:22:34.419Z,100760.63
2022-08-26T01:25:05.499Z,100749.09
2022-08-26T01:27:35.725Z,100749.16
2022-08-26T01:30:04.589Z,100751.06
2022-08-26T01:32:34.382Z,100754.75
2022-08-26T01:35:03.117Z,100745.91
2022-08-26T01:37:36.914Z,100760.38
2022-08-26T01:40:14.914Z,100757.78
2022-08-26T01:42:46.889Z,100752.53
2022-08-26T01:45:19.684Z,100753.50
2022-08-26T01:47:49.845Z,100751.78
2022-08-26T01:50:30.323Z,100748.34
2022-08-26T01:53:01.112Z,100745.69
2022-08-26T01:55:32.963Z,100746.69
2022-08-26T01:58:06.202Z,100748.53
2022-08-26T02:00:35.961Z,100735.16
2022-08-26T02:03:18.158Z,100746.00
2022-08-26T02:05:51.419Z,100737.13
2022-08-26T02:08:24.838Z,100732.75
2022-08-26T02:10:55.607Z,100731.84
2022-08-26T02:13:27.800Z,100741.88
2022-08-26T02:15:56.509Z,100741.94
2022-08-26T02:18:26.028Z,100734.06
2022-08-26T02:20:58.257Z,100735.88
2022-08-26T02:23:26.485Z,100738.63
2022-08-26T02:26:01.778Z,100736.94
2022-08-26T02:28:36.707Z,100733.44
2022-08-26T02:31:04.961Z,100738.97
2022-08-26T02:33:32.933Z,100737.19
2022-08-26T02:36:00.775Z,100727.50
2022-08-26T02:38:29.509Z,100728.41
2022-08-26T02:40:58.878Z,100733.88
2022-08-26T02:43:32.642Z,100718.72
2022-08-26T02:46:02.411Z,100725.03
2022-08-26T02:48:31.518Z,100727.84
2022-08-26T02:51:00.546Z,100716.22
2022-08-26T02:53:28.562Z,100719.88
2022-08-26T02:56:01.690Z,100726.19
2022-08-26T02:58:30.966Z,100726.25
2022-08-26T03:00:58.895Z,100722.75
2022-08-26T03:03:26.874Z,100720.19
2022-08-26T03:05:55.822Z,100722.06
2022-08-26T03:08:23.934Z,100714.03
2022-08-26T03:10:53.218Z,100714.03
2022-08-26T03:13:22.368Z,100709.66
2022-08-26T03:15:50.304Z,100708.78
2022-08-26T03:18:18.211Z,100702.50
2022-08-26T03:20:48.426Z,100705.25
2022-08-26T03:23:16.637Z,100707.16
2022-08-26T03:25:50.330Z,100706.28
2022-08-26T03:28:18.441Z,100694.72
2022-08-26T03:30:50.439Z,100702.81
2022-08-26T03:33:19.130Z,100700.22
2022-08-26T03:35:50.905Z,100702.97
2022-08-26T03:38:19.415Z,100693.16
2022-08-26T03:40:47.433Z,100695.06
2022-08-26T03:43:16.956Z,100705.00
2022-08-26T03:45:45.966Z,100696.13
2022-08-26T03:48:15.491Z,100698.88
2022-08-26T03:50:43.682Z,100701.69
2022-08-26T03:53:12.742Z,100693.59
2022-08-26T03:55:41.697Z,100699.91
2022-08-26T03:58:09.564Z,100700.03
2022-08-26T04:00:37.453Z,100691.06
2022-08-26T04:03:05.354Z,100694.72
2022-08-26T04:05:39.410Z,100704.66
2022-08-26T04:08:07.686Z,100693.94
2022-08-26T04:10:38.374Z,100696.72
2022-08-26T04:13:06.366Z,100694.09
2022-08-26T04:15:34.359Z,100691.41
2022-08-26T04:18:02.223Z,100696.84
2022-08-26T04:20:31.333Z,100694.19
2022-08-26T04:23:00.576Z,100700.44
2022-08-26T04:25:28.895Z,100698.72
2022-08-26T04:27:56.884Z,100704.16
2022-08-26T04:30:25.515Z,100703.31
2022-08-26T04:32:53.519Z,100698.88
2022-08-26T04:35:25.807Z,100695.31
2022-08-26T04:37:55.500Z,100689.03
2022-08-26T04:40:27.687Z,100696.25
2022-08-26T04:42:57.861Z,100694.44
2022-08-26T04:45:25.809Z,100698.00
2022-08-26T04:47:56.398Z,100692.63
2022-08-26T04:50:26.585Z,100704.22
2022-08-26T04:52:55.405Z,100701.47
2022-08-26T04:55:38.480Z,100699.59
2022-08-26T04:58:10.142Z,100698.63
2022-08-26T05:00:39.694Z,100704.84
2022-08-26T05:03:10.622Z,100699.47
2022-08-26T05:05:40.908Z,100702.09
2022-08-26T05:08:10.036Z,100708.34
2022-08-26T05:10:46.247Z,100709.16
2022-08-26T05:13:15.899Z,100712.72
2022-08-26T05:15:45.299Z,100709.16
2022-08-26T05:18:15.328Z,100719.00
2022-08-26T05:20:46.845Z,100716.25
2022-08-26T05:23:15.801Z,100709.06
2022-08-26T05:25:47.738Z,100706.25
2022-08-26T05:28:17.666Z,100722.19
2022-08-26T05:30:46.198Z,100721.09
2022-08-26T05:33:14.509Z,100716.47
2022-08-26T05:35:43.499Z,100718.16
2022-08-26T05:38:14.542Z,100719.75
2022-08-26T05:40:46.435Z,100718.69
2022-08-26T05:43:14.808Z,100716.69
2022-08-26T05:45:46.208Z,100718.22
2022-08-26T05:48:15.014Z,100720.69
2022-08-26T05:50:46.281Z,100728.56
2022-08-26T05:53:17.529Z,100725.72
2022-08-26T05:55:48.863Z,100723.66
2022-08-26T05:58:20.422Z,100730.53
2022-08-26T06:00:58.517Z,100722.16
2022-08-26T06:03:26.446Z,100720.13
2022-08-26T06:05:54.874Z,100719.91
2022-08-26T06:08:23.038Z,100720.47
2022-08-26T06:10:55.205Z,100705.88
2022-08-26T06:13:25.639Z,100705.75
2022-08-26T06:15:54.527Z,100709.03
2022-08-26T06:18:27.420Z,100709.75
2022-08-26T06:20:57.700Z,100704.91
2022-08-26T06:23:44.987Z,100708.22
2022-08-26T06:26:15.648Z,100712.50
2022-08-26T06:28:45.336Z,100714.94
2022-08-26T06:31:14.099Z,100707.44
2022-08-26T06:33:43.407Z,100712.66
2022-08-26T06:36:16.680Z,100714.19
2022-08-26T06:38:47.613Z,100704.91
2022-08-26T06:41:18.042Z,100709.19
2022-08-26T06:43:45.905Z,100705.31
2022-08-26T06:46:17.311Z,100710.44
2022-08-26T06:48:45.731Z,100705.69
2022-08-26T06:51:16.126Z,100708.09
2022-08-26T06:53:47.003Z,100710.59
2022-08-26T06:56:19.590Z,100704.91
2022-08-26T06:58:48.134Z,100698.25
2022-08-26T07:01:17.182Z,100692.53
2022-08-26T07:03:46.712Z,100702.22
2022-08-26T07:06:15.472Z,100698.28
2022-08-26T07:08:44.453Z,100691.69
2022-08-26T07:11:12.957Z,100695.75
2022-08-26T07:13:42.371Z,100685.53
2022-08-26T07:16:13.270Z,100687.00
2022-08-26T07:18:44.773Z,100688.44
2022-08-26T07:21:15.232Z,100685.25
2022-08-26T07:23:43.119Z,100685.81
2022-08-26T07:26:16.224Z,100688.13
2022-08-26T07:28:46.786Z,100687.72
2022-08-26T07:31:17.042Z,100687.25
2022-08-26T07:33:45.342Z,100690.38
2022-08-26T07:36:14.825Z,100682.66
2022-08-26T07:38:44.346Z,100681.38
2022-08-26T07:41:14.227Z,100690.75
2022-08-26T07:43:43.578Z,100687.63
2022-08-26T07:46:18.497Z,100683.56
2022-08-26T07:48:50.442Z,100684.00
2022-08-26T07:51:21.025Z,100680.78
2022-08-26T07:53:52.322Z,100691.13
2022-08-26T07:56:20.919Z,100694.28
2022-08-26T07:58:51.888Z,100688.38
2022-08-26T08:01:23.613Z,100686.09
2022-08-26T08:03:52.410Z,100679.31
2022-08-26T08:06:21.013Z,100680.59
2022-08-26T08:08:51.593Z,100682.59
2022-08-26T08:11:21.161Z,100682.84
2022-08-26T08:13:49.855Z,100685.75
2022-08-26T08:16:26.274Z,100682.97
2022-08-26T08:18:54.547Z,100680.50
2022-08-26T08:21:25.352Z,100682.56
2022-08-26T08:23:54.475Z,100679.91
2022-08-26T08:26:23.354Z,100690.03
2022-08-26T08:28:52.266Z,100675.50
2022-08-26T08:31:38.722Z,100681.03
2022-08-26T08:34:10.818Z,100681.72
2022-08-26T08:36:53.466Z,100679.19
2022-08-26T08:39:22.455Z,100682.59
2022-08-26T08:42:06.531Z,100674.63
2022-08-26T08:44:38.055Z,100672.59
2022-08-26T08:47:18.840Z,100670.72
2022-08-26T08:49:49.959Z,100671.34
2022-08-26T08:52:26.621Z,100674.69
2022-08-26T08:54:56.577Z,100670.25
2022-08-26T08:57:31.793Z,100668.63
2022-08-26T09:00:05.430Z,100671.47
2022-08-26T09:02:38.620Z,100672.47
2022-08-26T09:05:24.599Z,100669.66
2022-08-26T09:07:58.509Z,100661.25
2022-08-26T09:10:36.711Z,100659.72
2022-08-26T09:13:09.361Z,100656.59
2022-08-26T09:15:51.693Z,100659.75
2022-08-26T09:18:33.295Z,100665.56
2022-08-26T09:21:05.500Z,100659.69
2022-08-26T09:23:35.920Z,100657.16
2022-08-26T09:26:14.386Z,100661.19
2022-08-26T09:28:43.561Z,100656.16
2022-08-26T09:31:14.582Z,100655.81
2022-08-26T09:33:43.471Z,100660.81
2022-08-26T09:36:22.817Z,100653.19
2022-08-26T09:38:53.699Z,100657.66
2022-08-26T09:41:25.831Z,100662.78
2022-08-26T09:44:16.101Z,100655.56
2022-08-26T09:46:52.322Z,100661.06
2022-08-26T09:49:32.668Z,100650.34
2022-08-26T09:52:16.203Z,100650.53
2022-08-26T09:54:46.163Z,100643.19
2022-08-26T09:57:28.316Z,100643.94
2022-08-26T09:59:57.231Z,100637.00
2022-08-26T10:02:47.692Z,100629.97
2022-08-26T10:05:27.856Z,100632.59
2022-08-26T10:08:00.312Z,100628.81
2022-08-26T10:10:34.462Z,100620.16
2022-08-26T10:13:07.668Z,100614.69
2022-08-26T10:15:50.088Z,100610.88
2022-08-26T10:18:23.770Z,100610.03
2022-08-26T10:20:58.894Z,100605.00
2022-08-26T10:23:34.071Z,100596.72
2022-08-26T10:26:06.974Z,100598.19
2022-08-26T10:28:41.280Z,100592.38
2022-08-26T10:31:23.380Z,100588.31
2022-08-26T10:33:58.817Z,100575.44
2022-08-26T10:37:14.963Z,100572.44
2022-08-26T10:39:48.012Z,100574.41
2022-08-26T10:42:23.511Z,100566.16
2022-08-26T10:44:58.729Z,100559.19
2022-08-26T10:47:31.721Z,100556.81
2022-08-26T10:50:03.340Z,100551.97
2022-08-26T10:52:41.586Z,100546.88
2022-08-26T10:55:17.914Z,100545.34
2022-08-26T10:57:55.920Z,100534.22
2022-08-26T11:00:48.401Z,100526.22
2022-08-26T11:03:31.532Z,100521.53
2022-08-26T11:06:32.852Z,100506.44
2022-08-26T11:09:03.282Z,100508.53
2022-08-26T11:11:46.800Z,100503.06
2022-08-26T11:14:42.084Z,100496.97
2022-08-26T11:18:00.365Z,100487.84
2022-08-26T11:20:41.665Z,100490.09
2022-08-26T11:23:40.397Z,100482.38
2022-08-26T11:26:37.817Z,100476.81
2022-08-26T11:29:13.580Z,100470.59
2022-08-26T11:32:02.797Z,100464.38
2022-08-26T11:34:55.001Z,100459.53
2022-08-26T11:37:30.895Z,100462.03
2022-08-26T11:40:03.913Z,100454.94
2022-08-26T11:42:37.828Z,100451.06
2022-08-26T11:45:19.697Z,100446.69
2022-08-26T11:47:49.341Z,100448.72
2022-08-26T11:50:20.590Z,100454.88
2022-08-26T11:53:01.626Z,100453.91
2022-08-26T11:55:30.540Z,100442.97
2022-08-26T11:58:01.096Z,100440.25
2022-08-26T12:00:34.480Z,100436.69
2022-08-26T12:03:07.960Z,100426.38
2022-08-26T12:05:43.201Z,100427.41
2022-08-26T12:08:16.240Z,100429.31
2022-08-26T12:10:46.791Z,100431.69
2022-08-26T12:13:23.608Z,100424.44
2022-08-26T12:15:58.245Z,100425.66
2022-08-26T12:18:29.174Z,100428.91
2022-08-26T12:21:01.115Z,100432.78
2022-08-26T12:23:40.438Z,100431.78
2022-08-26T12:26:14.472Z,100437.47
2022-08-26T12:28:47.554Z,100446.41
2022-08-26T12:31:26.900Z,100446.50
2022-08-26T12:33:56.972Z,100451.34
2022-08-26T12:36:31.633Z,100435.31
2022-08-26T12:39:08.157Z,100437.50
2022-08-26T12:41:41.619Z,100435.47
2022-08-26T12:44:09.725Z,100443.34
2022-08-26T12:46:39.110Z,100438.63
2022-08-26T12:49:07.381Z,100439.41
2022-08-26T12:51:42.031Z,100450.22
2022-08-26T12:54:16.042Z,100459.38
2022-08-26T12:56:44.481Z,100481.44
2022-08-26T12:59:23.227Z,100483.53
2022-08-26T13:01:53.996Z,100498.31
2022-08-26T13:04:41.146Z,100506.31
2022-08-26T13:07:24.878Z,100504.84
2022-08-26T13:09:54.922Z,100501.00
2022-08-26T13:12:28.981Z,100498.81
2022-08-26T13:14:58.793Z,100492.94
2022-08-26T13:17:28.625Z,100502.63
2022-08-26T13:20:02.693Z,100496.06
2022-08-26T13:22:31.770Z,100493.91
2022-08-26T13:24:59.784Z,100487.34
2022-08-26T13:27:28.413Z,100486.78
2022-08-26T13:29:57.925Z,100480.34
2022-08-26T13:32:28.342Z,100474.66
2022-08-26T13:34:57.967Z,100476.41
2022-08-26T13:37:34.586Z,100473.09
2022-08-26T13:40:03.059Z,100461.25
2022-08-26T13:42:31.386Z,100456.75
2022-08-26T13:44:59.853Z,100442.69
2022-08-26T13:47:29.313Z,100446.84
2022-08-26T13:49:57.349Z,100465.25
2022-08-26T13:52:30.168Z,100466.50
2022-08-26T13:54:59.232Z,100458.53
2022-08-26T13:57:28.521Z,100443.63
2022-08-26T13:59:59.038Z,100439.56
2022-08-26T14:02:28.923Z,100441.28
2022-08-26T14:04:56.978Z,100449.41
2022-08-26T14:07:25.319Z,100452.97
2022-08-26T14:09:53.279Z,100457.38
2022-08-26T14:12:21.190Z,100462.63
2022-08-26T14:14:49.058Z,100466.78
2022-08-26T14:17:20.797Z,100457.34
2022-08-26T14:19:51.349Z,100463.38
2022-08-26T14:22:21.489Z,100457.56
2022-08-26T14:24:50.315Z,100452.59
2022-08-26T14:27:18.223Z,100454.88
2022-08-26T14:29:46.049Z,100452.69
2022-08-26T14:32:19.434Z,100461.25
2022-08-26T14:34:52.015Z,100458.75
2022-08-26T14:37:23.598Z,100463.63
2022-08-26T14:39:51.647Z,100461.38
2022-08-26T14:42:24.681Z,100447.41
2022-08-26T14:44:56.763Z,100450.75
2022-08-26T14:47:25.096Z,100442.34
2022-08-26T14:49:54.658Z,100444.59
2022-08-26T14:52:22.783Z,100441.38
2022-08-26T14:54:55.038Z,100440.88
2022-08-26T14:57:23.445Z,100430.09
2022-08-26T14:59:51.453Z,100423.38
2022-08-26T15:02:27.723Z,100413.13
2022-08-26T15:05:02.880Z,100414.00
2022-08-26T15:07:31.109Z,100400.97
2022-08-26T15:09:58.957Z,100384.09
2022-08-26T15:12:27.778Z,100370.97
2022-08-26T15:14:55.611Z,100391.19
2022-08-26T15:17:23.510Z,100392.44
2022-08-26T15:19:51.656Z,100396.41
2022-08-26T15:22:20.943Z,100405.19
2022-08-26T15:24:49.956Z,100407.28
2022-08-26T15:27:21.894Z,100408.50
2022-08-26T15:29:49.758Z,100417.81
2022-08-26T15:32:17.684Z,100416.44
2022-08-26T15:34:45.849Z,100414.84
2022-08-26T15:37:13.680Z,100421.25
2022-08-26T15:39:43.262Z,100417.81
2022-08-26T15:42:11.662Z,100428.94
2022-08-26T15:44:44.440Z,100426.44
2022-08-26T15:47:12.717Z,100423.72
2022-08-26T15:49:40.946Z,100418.28
2022-08-26T15:52:09.864Z,100411.09
2022-08-26T15:54:37.836Z,100417.66
2022-08-26T15:57:09.466Z,100415.94
2022-08-26T15:59:39.282Z,100420.63
2022-08-26T16:02:07.168Z,100414.41
2022-08-26T16:04:35.199Z,100415.53
2022-08-26T16:07:03.532Z,100427.19
2022-08-26T16:09:31.432Z,100437.13
2022-08-26T16:11:59.769Z,100442.69
2022-08-26T16:14:28.968Z,100458.16
2022-08-26T16:16:59.769Z,100455.56
2022-08-26T16:19:27.878Z,100456.44
2022-08-26T16:21:55.703Z,100460.16
2022-08-26T16:24:28.363Z,100456.56
2022-08-26T16:26:56.482Z,100458.53
2022-08-26T16:29:24.604Z,100459.53
2022-08-26T16:31:59.686Z,100463.47
2022-08-26T16:34:31.415Z,100467.19
2022-08-26T16:36:59.295Z,100462.84
2022-08-26T16:39:27.820Z,100460.34
2022-08-26T16:41:55.657Z,100466.78
2022-08-26T16:44:23.593Z,100454.41
2022-08-26T16:46:58.733Z,100456.50
2022-08-26T16:49:26.705Z,100457.66
2022-08-26T16:51:54.526Z,100451.56
2022-08-26T16:54:22.644Z,100455.44
2022-08-26T16:56:50.484Z,100452.06
2022-08-26T16:59:18.322Z,100452.19
2022-08-26T17:01:46.220Z,100456.09
2022-08-26T17:04:15.464Z,100461.16
2022-08-26T17:06:43.291Z,100464.47
2022-08-26T17:09:11.143Z,100470.25
2022-08-26T17:11:39.471Z,100468.88
2022-08-26T17:14:07.690Z,100464.63
2022-08-26T17:16:35.621Z,100461.25
2022-08-26T17:19:04.583Z,100465.22
2022-08-26T17:21:35.671Z,100463.56
2022-08-26T17:24:05.022Z,100467.75
2022-08-26T17:26:33.356Z,100471.75
2022-08-26T17:29:01.272Z,100472.09
2022-08-26T17:31:29.193Z,100478.97
2022-08-26T17:33:57.157Z,100470.16
2022-08-26T17:36:27.826Z,100473.22
2022-08-26T17:38:58.637Z,100473.53
2022-08-26T17:41:27.432Z,100467.66
2022-08-26T17:44:00.736Z,100467.28
2022-08-26T17:46:45.583Z,100458.78
2022-08-26T17:49:13.436Z,100461.28
2022-08-26T17:51:41.460Z,100464.44
2022-08-26T17:54:10.642Z,100455.03
2022-08-26T17:56:38.612Z,100460.94
2022-08-26T17:59:06.621Z,100447.75
2022-08-26T18:01:35.417Z,100451.13
2022-08-26T18:04:03.824Z,100456.13
2022-08-26T18:06:32.450Z,100463.94
2022-08-26T18:09:04.680Z,100460.88
2022-08-26T18:11:34.881Z,100461.53
2022-08-26T18:14:02.875Z,100461.13
2022-08-26T18:16:34.206Z,100455.34
2022-08-26T18:19:02.658Z,100464.78
2022-08-26T18:21:30.588Z,100458.91
2022-08-26T18:23:58.528Z,100452.34
2022-08-26T18:26:29.059Z,100453.63
2022-08-26T18:28:59.382Z,100452.38
2022-08-26T18:31:28.017Z,100446.50
2022-08-26T18:33:56.171Z,100444.28
2022-08-26T18:36:26.745Z,100442.94
2022-08-26T18:38:55.580Z,100444.19
2022-08-26T18:41:25.600Z,100442.75
2022-08-26T18:43:54.798Z,100447.69
2022-08-26T18:46:26.439Z,100444.50
2022-08-26T18:48:54.940Z,100455.75
2022-08-26T18:51:25.379Z,100448.00
2022-08-26T18:53:53.807Z,100448.28
2022-08-26T18:56:21.680Z,100449.56
2022-08-26T18:58:50.004Z,100448.13
2022-08-26T19:01:20.933Z,100448.50
2022-08-26T19:03:52.593Z,100457.03
2022-08-26T19:06:23.336Z,100456.44
2022-08-26T19:08:51.396Z,100461.28
2022-08-26T19:11:31.718Z,100461.53
2022-08-26T19:14:00.957Z,100461.13
2022-08-26T19:16:29.492Z,100464.00
2022-08-26T19:19:01.027Z,100466.03
2022-08-26T19:21:30.006Z,100472.63
2022-08-26T19:23:59.185Z,100473.75
2022-08-26T19:26:32.923Z,100485.75
2022-08-26T19:29:01.564Z,100480.59
2022-08-26T19:31:29.575Z,100481.69
2022-08-26T19:33:59.143Z,100484.41
2022-08-26T19:36:29.012Z,100481.00
2022-08-26T19:38:57.741Z,100481.19
2022-08-26T19:41:36.944Z,100482.22
2022-08-26T19:44:07.982Z,100492.38
2022-08-26T19:49:10.970Z,100484.63
2022-08-26T19:51:38.843Z,100491.94
2022-08-26T19:54:06.868Z,100497.47
2022-08-26T19:56:34.922Z,100506.56
2022-08-26T19:59:02.832Z,100503.94
2022-08-26T20:01:30.782Z,100510.28
2022-08-26T20:03:58.730Z,100512.22
2022-08-26T20:06:27.928Z,100510.50
2022-08-26T20:08:56.245Z,100510.66
2022-08-26T20:11:24.392Z,100502.63
2022-08-26T20:13:52.224Z,100502.72
2022-08-26T20:16:20.163Z,100499.28
2022-08-26T20:19:05.765Z,100510.28
2022-08-26T20:21:38.938Z,100513.16
2022-08-26T20:24:10.505Z,100516.03
2022-08-26T20:26:39.985Z,100514.50
2022-08-26T20:29:09.712Z,100516.41
2022-08-26T20:31:38.153Z,100520.06
2022-08-26T20:34:07.622Z,100529.09
2022-08-26T20:36:39.486Z,100530.91
2022-08-26T20:39:08.198Z,100532.81
2022-08-26T20:41:36.118Z,100533.69
2022-08-26T20:44:04.659Z,100536.47
2022-08-26T20:46:32.606Z,100528.47
2022-08-26T20:49:00.551Z,100535.78
2022-08-26T20:51:29.269Z,100534.06
2022-08-26T20:53:58.558Z,100535.00
2022-08-26T20:56:26.587Z,100542.19
2022-08-26T20:59:00.301Z,100537.63
2022-08-26T21:01:30.753Z,100523.22
2022-08-26T21:03:58.777Z,100528.66
2022-08-26T21:06:26.924Z,100530.47
2022-08-26T21:08:55.203Z,100533.28
2022-08-26T21:11:25.225Z,100531.44
2022-08-26T21:14:15.794Z,100533.38
2022-08-26T21:16:41.885Z,100540.59
2022-08-26T21:19:12.922Z,100535.25
2022-08-26T21:21:42.218Z,100529.06
2022-08-26T21:24:10.324Z,100532.75
2022-08-26T21:26:39.897Z,100524.63
2022-08-26T21:29:09.707Z,100519.38
2022-08-26T21:31:44.925Z,100513.19
2022-08-26T21:34:13.941Z,100511.50
2022-08-26T21:36:42.038Z,100508.81
2022-08-26T21:39:12.102Z,100506.28
2022-08-26T21:41:43.201Z,100503.66
2022-08-26T21:44:12.061Z,100502.78
2022-08-26T21:46:40.615Z,100506.56
2022-08-26T21:49:10.566Z,100504.88
2022-08-26T21:51:41.198Z,100494.13
2022-08-26T21:54:11.342Z,100497.00
2022-08-26T21:56:44.351Z,100490.81
2022-08-26T21:59:13.452Z,100499.91
2022-08-26T22:01:41.421Z,100489.25
2022-08-26T22:04:10.937Z,100492.03
2022-08-26T22:06:43.367Z,100484.09
2022-08-26T22:09:12.270Z,100481.53
2022-08-26T22:11:42.215Z,100477.13
2022-08-26T22:14:11.081Z,100483.63
2022-08-26T22:16:39.193Z,100482.13
2022-08-26T22:19:07.332Z,100500.25
2022-08-26T22:21:40.451Z,100495.88
2022-08-26T22:24:08.752Z,100501.38
2022-08-26T22:26:36.718Z,100512.25
2022-08-26T22:29:07.825Z,100511.47
2022-08-26T22:31:37.606Z,100509.84
2022-08-26T22:34:08.274Z,100515.31
2022-08-26T22:36:43.124Z,100513.56
2022-08-26T22:39:12.959Z,100513.00
2022-08-26T22:41:41.287Z,100519.41
2022-08-26T22:44:11.743Z,100524.97
2022-08-26T22:46:41.071Z,100518.94
2022-08-26T22:49:09.874Z,100523.63
2022-08-26T22:51:37.777Z,100519.31
2022-08-26T22:54:06.468Z,100515.91
2022-08-26T22:56:34.961Z,100525.91
2022-08-26T22:59:02.941Z,100532.38
2022-08-26T23:01:36.316Z,100527.13
2022-08-26T23:04:06.272Z,100536.31
2022-08-26T23:06:36.163Z,100543.66
2022-08-26T23:09:04.185Z,100533.97
2022-08-26T23:11:32.154Z,100544.91
2022-08-26T23:14:00.511Z,100532.44
2022-08-26T23:16:39.223Z,100528.94
2022-08-26T23:19:07.914Z,100524.50
2022-08-26T23:21:36.303Z,100519.19
2022-08-26T23:24:04.816Z,100512.03
2022-08-26T23:26:33.091Z,100508.53
2022-08-26T23:29:01.469Z,100501.28
2022-08-26T23:31:29.558Z,100492.41
2022-08-26T23:34:16.473Z,100496.03
2022-08-26T23:36:45.298Z,100500.63
2022-08-26T23:39:15.141Z,100500.69
2022-08-26T23:41:43.117Z,100494.56
2022-08-26T23:44:11.082Z,100495.47
2022-08-26T23:46:39.511Z,100495.56
2022-08-26T23:49:08.741Z,100492.94
2022-08-26T23:51:59.752Z,100492.03
2022-08-26T23:54:27.786Z,100493.06
2022-08-26T23:56:55.651Z,100490.38
2022-08-26T23:59:23.522Z,100489.50
